Latest Coastal Weather Observations for Bundaberg

IDQ60701

Issued at 5:02 pm EST Wednesday 8 February 2023 (issued every 10 minutes, with the page automatically refreshed every 10 minutes)

About coastal observations | Map of coastal stations | Coastal observations for QLD | Marine services | Other Formats
Station Details ID: 039128 Name: BUNDABERG AERO Lat: -24.91 Lon: 152.32 Height: 30.82 m
Data from the previous 72 hours. | See also: Recent months at Bundaberg
Date/Time
EST
Wind Sea
Height
m
Swell Vis
km
Cloud Weather Temp
°C
Press
MSL
hPa
Rain since
9am
mm
Dir  Spd
kts
Gust
kts
Height
m
Period
s
Dir
08/05:00pm ESE 18 24 - - - - 10 Clear - 27.5 1008.3 0.0
08/04:30pm SE 19 26 - - - - 10 - - 28.1 1008.2 0.0
08/04:00pm SE 18 24 - - - - 10 - - 29.1 1008.0 0.0
08/03:30pm ESE 21 27 - - - - 10 Partly cloudy - 28.9 1008.2 0.0
08/03:01pm ESE 17 27 - - - - 10 - - 29.0 1008.3 0.0
08/03:00pm ESE 17 22 - - - - 10 - - 29.0 1008.3 0.0
08/02:30pm ESE 19 26 - - - - 10 Partly cloudy - 28.9 1008.5 0.0
08/02:00pm ESE 19 27 - - - - 10 - - 28.7 1008.7 0.0
08/01:30pm ESE 19 26 - - - - 10 Partly cloudy - 29.4 1008.9 0.0
08/01:00pm ESE 19 26 - - - - 10 - - 29.3 1009.3 0.0
08/12:47pm ESE 18 28 - - - - 10 - - 29.0 1009.3 0.0
08/12:30pm ESE 18 26 - - - - 10 Partly cloudy - 29.5 1009.4 0.0
08/12:00pm ESE 17 22 - - - - 10 Partly cloudy - 29.0 1009.7 0.0
08/11:30am ESE 16 22 - - - - 10 Partly cloudy - 29.3 1009.9 0.0
08/11:00am ESE 16 20 - - - - 10 Partly cloudy - 28.6 1010.3 0.0
08/10:30am ESE 19 24 - - - - 10 Partly cloudy - 28.2 1010.5 0.0
08/10:00am ESE 16 21 - - - - 10 Partly cloudy - 28.3 1010.7 0.0
08/09:30am ESE 17 24 - - - - 10 Partly cloudy - 28.0 1010.6 0.0
08/09:00am ESE 19 25 - - - - 10 Mostly clear - 27.5 1010.6 0.0
08/08:30am SE 13 18 - - - - 10 Partly cloudy - 26.4 1010.7 0.0
08/08:00am SE 11 13 - - - - 10 Partly cloudy - 25.7 1010.8 0.0
08/07:30am SSE 10 13 - - - - 10 Partly cloudy - 24.0 1010.7 0.0
08/07:00am SSE 6 9 - - - - 10 Partly cloudy - 22.5 1010.5 0.0
08/06:30am SSE 6 8 - - - - 10 - - 22.1 1010.1 0.0
08/06:00am SSE 6 7 - - - - 10 Partly cloudy - 21.2 1009.8 0.0
08/05:30am S 6 8 - - - - 10 Partly cloudy - 21.2 1009.6 0.0
08/05:00am S 6 8 - - - - 10 Partly cloudy - 21.2 1009.4 0.0
08/04:30am S 6 9 - - - - 10 Partly cloudy - 21.3 1009.4 0.0
08/04:00am SSE 6 8 - - - - 10 Partly cloudy - 21.4 1009.3 0.0
08/03:30am SSE 6 8 - - - - 10 Partly cloudy - 21.5 1009.4 0.0
08/03:00am SSE 5 8 - - - - 10 Cloudy - 21.7 1009.5 0.0
08/02:30am S 7 9 - - - - 10 Partly cloudy - 21.5 1009.5 0.0
08/02:00am S 6 8 - - - - 10 - - 21.2 1009.7 0.0
08/01:30am S 5 7 - - - - 10 Partly cloudy - 21.5 1009.9 0.0
08/01:00am S 6 8 - - - - 10 - - 21.3 1010.1 0.0
08/12:30am S 5 7 - - - - 10 - - 21.5 1010.7 0.0
08/12:00am S 5 7 - - - - 10 Mostly clear - 21.8 1011.2 0.0
 
Date/Time
EST
Wind Sea
Height
m
Swell Vis
km
Cloud Weather Temp
°C
Press
MSL
hPa
Rain since
9am
mm
Dir  Spd
kts
Gust
kts
Height
m
Period
s
Dir
07/11:30pm S 5 7 - - - - 10 Partly cloudy - 22.1 1011.4 0.0
07/11:00pm S 6 8 - - - - 10 - - 22.2 1011.6 0.0
07/10:30pm S 6 8 - - - - 10 - - 22.5 1011.8 0.0
07/10:00pm SSE 6 8 - - - - 10 Partly cloudy - 23.0 1011.8 0.0
07/09:30pm SSE 6 9 - - - - 10 - - 23.4 1012.0 0.0
07/09:00pm SSE 9 13 - - - - 10 Cloudy - 24.0 1011.9 0.0
07/08:30pm SSE 9 13 - - - - 10 - - 24.3 1011.9 0.0
07/08:00pm SSE 10 16 - - - - 10 - - 24.7 1011.9 0.0
07/07:30pm SE 12 16 - - - - 10 - - 25.0 1011.7 0.0
07/07:00pm SE 12 16 - - - - 10 - - 25.3 1011.6 0.0
07/06:30pm SE 11 17 - - - - 10 - - 25.6 1011.1 0.0
07/06:00pm SE 15 19 - - - - 10 Partly cloudy - 26.2 1010.6 0.0
07/05:30pm SE 15 20 - - - - 10 - - 26.5 1010.2 0.0
07/05:00pm SE 16 21 - - - - 10 - - 26.9 1009.9 0.0
07/04:30pm ESE 16 21 - - - - 10 - - 27.1 1009.7 0.0
07/04:00pm SE 17 23 - - - - 10 - - 29.1 1009.7 0.0
07/03:30pm ESE 20 26 - - - - 10 - - 29.3 1009.7 0.0
07/03:00pm ESE 19 25 - - - - 10 - - 29.4 1009.7 0.0
07/02:30pm ESE 19 26 - - - - 10 - - 29.7 1009.9 0.0
07/02:22pm ESE 16 26 - - - - 10 - - 29.6 1010.2 0.0
07/02:00pm ESE 17 23 - - - - 10 - - 29.7 1010.4 0.0
07/01:30pm ESE 17 23 - - - - 10 - - 29.3 1010.3 0.0
07/01:00pm ESE 17 22 - - - - 10 - - 29.3 1010.6 0.0
07/12:30pm ESE 16 21 - - - - 10 - - 30.0 1010.9 0.0
07/12:00pm ESE 14 18 - - - - 10 - - 30.1 1011.1 0.0
07/11:30am SE 14 23 - - - - 10 Partly cloudy - 29.5 1011.5 0.0
07/11:00am ESE 15 22 - - - - 10 Partly cloudy - 29.2 1011.9 0.0
07/10:30am ESE 15 20 - - - - 10 Partly cloudy - 29.7 1012.1 0.0
07/10:00am SE 14 20 - - - - 10 Partly cloudy - 28.9 1012.4 0.0
07/09:30am SE 18 22 - - - - 10 Partly cloudy - 28.6 1012.4 0.0
07/09:00am SE 16 21 - - - - 10 Mostly clear - 27.9 1012.3 0.0
07/08:30am SE 16 22 - - - - 10 Partly cloudy - 27.1 1012.1 0.0
07/08:00am SSE 12 17 - - - - 10 - - 26.5 1012.1 0.0
07/07:30am SSE 8 11 - - - - 10 - - 24.6 1012.1 0.0
07/07:00am S 6 9 - - - - 10 - - 23.3 1012.0 0.0
07/06:30am SSE 7 10 - - - - 10 - - 22.2 1011.7 0.0
07/06:00am SSE 7 9 - - - - 10 Mostly clear - 22.1 1011.0 0.0
07/05:30am SSE 7 11 - - - - 10 - - 21.9 1010.8 0.0
07/05:00am SSE 9 12 - - - - 10 - - 22.1 1010.8 0.0
07/04:30am SSE 8 13 - - - - 10 - - 22.0 1010.9 0.0
07/04:00am SSE 8 11 - - - - 10 - - 22.0 1010.9 0.0
07/03:30am SSE 7 10 - - - - 10 - - 22.2 1011.2 0.0
07/03:00am S 7 9 - - - - 10 Mostly cloudy - 22.2 1011.3 0.0
07/02:30am S 7 10 - - - - 10 Partly cloudy - 22.2 1011.3 0.0
07/02:00am S 7 12 - - - - 10 - - 22.3 1011.4 0.0
07/01:30am S 7 10 - - - - 10 - - 22.1 1011.5 0.0
07/01:00am S 6 9 - - - - 10 - - 22.2 1011.7 0.0
07/12:30am S 7 9 - - - - 10 - - 22.5 1012.1 0.0
07/12:00am S 7 9 - - - - 10 - - 22.6 1012.4 0.0
 
Date/Time
EST
Wind Sea
Height
m
Swell Vis
km
Cloud Weather Temp
°C
Press
MSL
hPa
Rain since
9am
mm
Dir  Spd
kts
Gust
kts
Height
m
Period
s
Dir
06/11:30pm S 7 10 - - - - 10 - - 22.7 1012.7 0.0
06/11:00pm S 7 9 - - - - 10 - - 22.9 1013.0 0.0
06/10:30pm SSE 7 9 - - - - 10 - - 23.4 1013.1 0.0
06/10:00pm SSE 8 12 - - - - 10 - - 23.6 1013.2 0.0
06/09:30pm SSE 9 12 - - - - 10 - - 24.0 1013.2 0.0
06/09:00pm SSE 10 12 - - - - 10 - - 24.2 1013.3 0.0
06/08:30pm SE 12 15 - - - - 10 - - 24.4 1013.0 0.0
06/08:00pm SSE 12 15 - - - - 10 - - 24.8 1012.9 0.0
06/07:30pm SSE 13 16 - - - - 10 - - 25.2 1012.8 0.0
06/07:00pm SE 13 17 - - - - 10 Partly cloudy - 25.5 1012.5 0.0
06/06:30pm SE 14 17 - - - - 10 Cloudy - 26.3 1012.2 0.0
06/06:00pm SE 13 17 - - - - 10 Mostly cloudy - 26.7 1012.0 0.0
06/05:30pm SE 17 24 - - - - 10 Partly cloudy - 27.1 1011.8 0.0
06/05:00pm SE 17 22 - - - - 10 Partly cloudy - 27.1 1011.7 0.0
06/04:30pm SE 17 22 - - - - 10 Cloudy - 27.1 1011.8 0.0
06/04:00pm SE 18 23 - - - - 10 Partly cloudy - 27.4 1011.8 0.0
06/03:30pm SSE 17 23 - - - - 10 Partly cloudy - 27.2 1011.9 0.0
06/03:00pm SE 18 24 - - - - 10 Cloudy - 27.5 1012.0 0.0
06/02:30pm SE 19 25 - - - - 10 Cloudy - 28.1 1012.0 0.0
06/02:00pm SE 20 26 - - - - 10 Partly cloudy - 28.8 1012.0 0.0
06/01:30pm SSE 15 20 - - - - 10 Cloudy - 28.8 1012.2 0.0
06/01:00pm SSE 16 21 - - - - 10 Cloudy - 27.4 1012.3 0.0
06/12:30pm SSE 15 20 - - - - 10 Cloudy - 28.1 1012.4 0.0
06/12:00pm SSE 15 20 - - - - 10 Cloudy - 28.6 1012.6 0.0
06/11:30am SSE 13 19 - - - - 10 Partly cloudy - 28.9 1012.9 0.0
06/11:00am SE 16 22 - - - - 10 Partly cloudy - 28.1 1013.5 0.0
06/10:30am SE 14 18 - - - - 10 Cloudy - 28.0 1013.7 0.0
06/10:00am SSE 13 18 - - - - 10 Cloudy - 28.4 1013.6 0.0
06/09:30am SSE 14 18 - - - - 10 Cloudy - 27.9 1013.5 0.0
06/09:00am SSE 13 18 - - - - 10 Cloudy - 27.4 1013.4 0.0
06/08:30am SSE 11 16 - - - - 10 Cloudy - 27.0 1013.5 0.0
06/08:00am SSE 9 13 - - - - 10 Cloudy - 26.1 1013.5 0.0
06/07:30am SSE 8 11 - - - - 10 Partly cloudy - 25.8 1013.3 0.0
06/07:11am SSE 8 11 - - - - 10 Partly cloudy - 25.3 1013.2 0.0
06/07:00am SSE 8 11 - - - - 10 Partly cloudy - 24.9 1013.0 0.0
06/06:30am SSE 7 10 - - - - 10 Partly cloudy - 24.4 1013.0 0.0
06/06:27am SSE 7 10 - - - - 10 Partly cloudy - 24.4 1013.0 0.0
06/06:25am SSE 7 10 - - - - 10 Partly cloudy - 24.4 1013.0 0.0
06/06:00am SSE 7 10 - - - - 10 Cloudy - 24.1 1012.8 0.0
06/05:47am SSE 8 10 - - - - 10 Partly cloudy - 24.0 1012.7 0.0
06/05:30am SSE 8 11 - - - - 10 Partly cloudy - 23.9 1012.4 0.0
06/05:00am SSE 10 14 - - - - 10 Partly cloudy - 23.9 1012.0 0.0
06/04:30am SSE 7 11 - - - - 10 Partly cloudy - 24.1 1011.9 0.0
06/04:11am SSE 9 13 - - - - 10 Partly cloudy - 24.3 1011.7 0.0
06/04:00am SSE 8 13 - - - - 10 Partly cloudy - 24.4 1011.6 0.0
06/03:30am SSE 7 10 - - - - 10 Partly cloudy - 24.4 1011.4 0.0
06/03:00am SSE 7 12 - - - - 10 Cloudy - 24.3 1011.2 0.0
06/02:35am SSE 7 9 - - - - 10 Partly cloudy - 24.9 1011.1 0.0
06/02:30am SSE 7 9 - - - - 10 Partly cloudy - 24.9 1011.1 0.0
06/02:00am SSE 6 9 - - - - 10 Cloudy - 25.0 1011.4 0.0
06/01:30am SSE 6 9 - - - - 10 Cloudy - 25.0 1011.5 0.0
06/01:00am SSE 7 9 - - - - 10 Cloudy - 25.1 1011.8 0.0
06/12:30am S 6 9 - - - - 10 Partly cloudy - 25.2 1012.1 0.0
06/12:00am SSE 6 9 - - - - 10 Cloudy - 25.4 1012.2 0.0
 
Date/Time
EST
Wind Sea
Height
m
Swell Vis
km
Cloud Weather Temp
°C
Press
MSL
hPa
Rain since
9am
mm
Dir  Spd
kts
Gust
kts
Height
m
Period
s
Dir
05/11:30pm S 5 8 - - - - 10 Partly cloudy - 25.3 1012.4 0.0
05/11:00pm SSE 8 12 - - - - 10 Partly cloudy - 25.5 1012.4 0.0
05/10:30pm SSE 11 16 - - - - 10 Partly cloudy - 26.0 1012.5 0.0
05/10:00pm SSE 11 15 - - - - 10 Partly cloudy - 25.9 1012.6 0.0
05/09:30pm SE 11 13 - - - - 10 Partly cloudy - 25.8 1012.5 0.0
05/09:00pm SE 11 13 - - - - 10 Cloudy - 26.0 1012.4 0.0
05/08:30pm SE 12 15 - - - - 10 - - 25.9 1011.8 0.0
05/08:00pm SE 13 16 - - - - 10 - - 26.1 1011.8 0.0
05/07:30pm SE 9 11 - - - - 10 - - 26.2 1011.6 0.0
05/07:00pm SE 12 16 - - - - 10 Partly cloudy - 26.7 1011.2 0.0
05/06:30pm SE 15 19 - - - - 10 Partly cloudy - 27.4 1011.0 0.0
05/06:00pm ESE 15 24 - - - - 10 Cloudy - 28.0 1010.7 0.0
05/05:39pm ESE 15 25 - - - - 10 - - 28.2 1010.3 0.0
05/05:30pm ESE 16 21 - - - - 10 - - 28.9 1010.2 0.0

Other formats

Comma delimited format used in spreadsheet applications
http://www.bom.gov.au/fwo/IDQ60701/IDQ60701.94387.axf

JavaScript Object Notation format (JSON) in row-major order
http://www.bom.gov.au/fwo/IDQ60701/IDQ60701.94387.json

Data quality

Most of these data are generated automatically and are frequently updated. Quality checks on data are not normally performed. It is possible for incorrect values to appear. Refer to information at About Latest Weather Observations and please check the disclaimer before using these data.